createdAt,value
2022-10-03T00:03:39.907Z,10.2
2022-10-03T00:08:45.979Z,10.2
2022-10-03T00:13:51.905Z,10.2
2022-10-03T00:18:58.157Z,10.1
2022-10-03T00:24:04.109Z,10.1
2022-10-03T00:29:10.199Z,10.1
2022-10-03T00:34:16.294Z,10.1
2022-10-03T00:39:22.579Z,10
2022-10-03T00:44:28.651Z,10
2022-10-03T00:49:34.723Z,10.1
2022-10-03T00:54:40.806Z,10.1
2022-10-03T00:59:45.959Z,10.1
2022-10-03T01:04:52.006Z,10
2022-10-03T01:09:58.128Z,10
2022-10-03T01:15:04.252Z,10
2022-10-03T01:20:10.227Z,10
2022-10-03T01:25:16.396Z,10.1
2022-10-03T01:30:22.551Z,10.2
2022-10-03T01:35:28.629Z,10.3
2022-10-03T01:40:34.673Z,10.3
2022-10-03T01:45:40.803Z,10.3
2022-10-03T01:50:46.938Z,10.3
2022-10-03T01:55:52.944Z,10.3
2022-10-03T02:00:59.074Z,10.3
2022-10-03T02:06:04.216Z,10.3
2022-10-03T02:11:10.251Z,10.4
2022-10-03T02:16:16.387Z,10.4
2022-10-03T02:21:22.477Z,10.4
2022-10-03T02:26:28.565Z,10.4
2022-10-03T02:31:34.592Z,10.4
2022-10-03T02:36:40.792Z,10.5
2022-10-03T02:41:46.778Z,10.5
2022-10-03T02:46:52.829Z,10.5
2022-10-03T02:51:58.901Z,10.5
2022-10-03T02:57:05.122Z,10.6
2022-10-03T03:02:11.158Z,10.6
2022-10-03T03:07:17.325Z,10.7
2022-10-03T03:12:22.428Z,10.7
2022-10-03T03:17:28.503Z,10.7
2022-10-03T03:22:34.637Z,10.7
2022-10-03T03:27:40.589Z,10.6
2022-10-03T03:32:46.684Z,10.6
2022-10-03T03:37:52.888Z,10.6
2022-10-03T03:42:58.944Z,10.6
2022-10-03T03:48:05.100Z,10.5
2022-10-03T03:53:11.097Z,10.5
2022-10-03T03:58:17.250Z,10.5
2022-10-03T04:08:29.445Z,10.5
2022-10-03T04:13:35.508Z,10.5
2022-10-03T04:18:40.562Z,10.5
2022-10-03T04:23:46.658Z,10.5
2022-10-03T04:28:52.919Z,10.5
2022-10-03T04:33:58.850Z,10.5
2022-10-03T04:39:04.997Z,10.5
2022-10-03T04:44:11.044Z,10.6
2022-10-03T04:49:17.130Z,10.6
2022-10-03T04:54:23.250Z,10.6
2022-10-03T04:59:29.351Z,10.5
2022-10-03T05:04:35.434Z,10.4
2022-10-03T05:09:41.531Z,10.4
2022-10-03T05:14:47.613Z,10.4
2022-10-03T05:19:53.708Z,10.5
2022-10-03T05:24:58.819Z,10.5
2022-10-03T05:30:04.933Z,10.4
2022-10-03T05:35:11.017Z,10.4
2022-10-03T05:40:17.102Z,10.4
2022-10-03T05:45:23.316Z,10.4
2022-10-03T05:50:29.310Z,10.4
2022-10-03T05:55:35.409Z,10.6
2022-10-03T06:00:41.482Z,10.7
2022-10-03T06:05:47.645Z,10.9
2022-10-03T06:10:53.723Z,11
2022-10-03T06:15:59.902Z,11.1
2022-10-03T06:21:05.878Z,11.2
2022-10-03T06:26:12.008Z,11.2
2022-10-03T06:31:17.086Z,11.3
2022-10-03T06:36:23.177Z,11.5
2022-10-03T06:41:29.286Z,11.8
2022-10-03T06:46:35.373Z,12
2022-10-03T06:51:41.571Z,12.2
2022-10-03T06:56:47.654Z,12.3
2022-10-03T07:01:53.650Z,12.5
2022-10-03T07:06:59.753Z,12.6
2022-10-03T07:12:05.884Z,12.8
2022-10-03T07:17:11.982Z,12.6
2022-10-03T07:22:18.160Z,12.5
2022-10-03T07:27:24.215Z,12.5
2022-10-03T07:32:30.238Z,12.4
2022-10-03T07:37:35.330Z,12.7
2022-10-03T07:42:41.438Z,13
2022-10-03T07:47:47.517Z,13.1
2022-10-03T07:52:53.646Z,13.1
2022-10-03T07:57:59.756Z,13.1
2022-10-03T08:03:05.811Z,13.3
2022-10-03T08:08:11.906Z,13.6
2022-10-03T08:13:18.000Z,13.8
2022-10-03T08:18:24.090Z,13.9
2022-10-03T08:23:30.232Z,14
2022-10-03T08:28:36.297Z,14.1
2022-10-03T08:33:42.363Z,14.6
2022-10-03T08:38:48.471Z,14.8
2022-10-03T08:43:53.584Z,14.6
2022-10-03T08:48:59.669Z,14.6
2022-10-03T08:54:05.807Z,14.7
2022-10-03T08:59:11.878Z,15.7
2022-10-03T09:04:18.064Z,16.6
2022-10-03T09:09:24.049Z,16.4
2022-10-03T09:14:30.147Z,15.7
2022-10-03T09:19:36.243Z,16.3
2022-10-03T09:24:42.351Z,16
2022-10-03T09:29:48.425Z,15.8
2022-10-03T09:34:54.519Z,15
2022-10-03T09:40:00.614Z,17.7
2022-10-03T09:45:06.742Z,18.8
2022-10-03T09:50:11.819Z,19.2
2022-10-03T09:55:17.910Z,17.7
2022-10-03T10:00:24.030Z,16.5
2022-10-03T10:05:30.107Z,18.3
2022-10-03T10:10:36.234Z,19.7
2022-10-03T10:15:42.341Z,20.9
2022-10-03T10:20:48.400Z,17.7
2022-10-03T10:25:54.478Z,19.1
2022-10-03T10:31:00.562Z,21.1
2022-10-03T10:36:06.664Z,21.5
2022-10-03T10:41:12.816Z,19.3
2022-10-03T10:46:18.864Z,21.3
2022-10-03T10:51:24.973Z,22.6
2022-10-03T10:56:30.090Z,21.6
2022-10-03T11:01:36.155Z,20
2022-10-03T11:06:42.244Z,18.6
2022-10-03T11:11:48.353Z,17.9
2022-10-03T11:16:54.439Z,17.8
2022-10-03T11:22:00.529Z,18.3
2022-10-03T11:27:06.628Z,18.8
2022-10-03T11:32:12.718Z,18.8
2022-10-03T11:37:18.824Z,18.9
2022-10-03T11:42:24.909Z,18.8
2022-10-03T11:47:31.103Z,18.3
2022-10-03T11:52:37.101Z,17.8
2022-10-03T11:57:43.196Z,17.3
2022-10-03T12:02:48.305Z,17.2
2022-10-03T12:07:54.399Z,17.2
2022-10-03T12:13:00.495Z,17
2022-10-03T12:18:06.590Z,16.9
2022-10-03T12:23:12.669Z,17
2022-10-03T12:28:18.771Z,17.5
2022-10-03T12:33:24.860Z,17.7
2022-10-03T12:38:30.966Z,17.7
2022-10-03T12:48:43.163Z,18
2022-10-03T12:53:49.237Z,18.1
2022-10-03T12:58:55.410Z,17.9
2022-10-03T13:04:01.516Z,17.7
2022-10-03T13:09:06.660Z,17.6
2022-10-03T13:14:12.668Z,17.5
2022-10-03T13:19:18.739Z,17.4
2022-10-03T13:24:24.816Z,17.3
2022-10-03T13:29:30.920Z,17.1
2022-10-03T13:34:37.009Z,16.7
2022-10-03T13:39:43.097Z,16.5
2022-10-03T13:44:49.203Z,16.4
2022-10-03T13:49:55.275Z,16.4
2022-10-03T13:55:01.394Z,16.6
2022-10-03T14:00:07.463Z,16.5
2022-10-03T14:05:13.594Z,16.4
2022-10-03T14:10:19.720Z,16.5
2022-10-03T14:15:24.773Z,16.7
2022-10-03T14:20:30.866Z,16.9
2022-10-03T14:25:36.960Z,17.1
2022-10-03T14:30:43.102Z,17.5
2022-10-03T14:35:49.265Z,18
2022-10-03T14:40:55.237Z,19.6
2022-10-03T14:46:01.365Z,18.5
2022-10-03T14:51:07.443Z,17.3
2022-10-03T14:56:13.548Z,16.9
2022-10-03T15:01:19.628Z,16.6
2022-10-03T15:06:25.866Z,16.3
2022-10-03T15:11:31.838Z,16.5
2022-10-03T15:16:38.027Z,16.6
2022-10-03T15:21:43.169Z,16.6
2022-10-03T15:26:49.245Z,16.6
2022-10-03T15:31:55.202Z,16.6
2022-10-03T15:37:01.317Z,16.6
2022-10-03T15:42:07.495Z,16.4
2022-10-03T15:47:13.548Z,16.3
2022-10-03T15:52:18.622Z,16.1
2022-10-03T15:57:24.715Z,16.1
2022-10-03T16:02:30.805Z,16
2022-10-03T16:07:36.946Z,15.9
2022-10-03T16:12:43.091Z,15.7
2022-10-03T16:17:49.110Z,15.6
2022-10-03T16:22:55.207Z,15.5
2022-10-03T16:28:01.288Z,15.5
2022-10-03T16:33:07.375Z,15.4
2022-10-03T16:38:13.460Z,15.4
2022-10-03T16:43:19.547Z,15.3
2022-10-03T16:48:25.718Z,15.3
2022-10-03T16:53:31.801Z,15.2
2022-10-03T16:58:36.947Z,15.1
2022-10-03T17:03:43.022Z,15
2022-10-03T17:08:49.131Z,14.9
2022-10-03T17:13:55.195Z,14.9
2022-10-03T17:19:01.299Z,14.8
2022-10-03T17:24:07.412Z,14.7
2022-10-03T17:29:13.484Z,14.6
2022-10-03T17:34:19.592Z,14.5
2022-10-03T17:39:25.749Z,14.5
2022-10-03T17:44:31.767Z,14.5
2022-10-03T17:49:37.902Z,14.4
2022-10-03T17:54:43.953Z,14.4
2022-10-03T17:59:50.052Z,14.3
2022-10-03T18:04:55.166Z,14.3
2022-10-03T18:10:01.341Z,14.2
2022-10-03T18:15:07.392Z,14.2
2022-10-03T18:20:13.456Z,14.2
2022-10-03T18:25:19.550Z,14.2
2022-10-03T18:30:25.628Z,14.1
2022-10-03T18:35:31.734Z,14.1
2022-10-03T18:40:37.827Z,14.1
2022-10-03T18:45:43.916Z,14.1
2022-10-03T18:50:50.023Z,14.1
2022-10-03T18:55:56.106Z,14.1
2022-10-03T19:01:02.240Z,14.1
2022-10-03T19:06:08.291Z,14.1
2022-10-03T19:11:13.437Z,14
2022-10-03T19:16:19.495Z,13.9
2022-10-03T19:21:25.595Z,13.9
2022-10-03T19:26:31.819Z,13.9
2022-10-03T19:31:37.803Z,13.9
2022-10-03T19:36:43.877Z,13.8
2022-10-03T19:41:50.105Z,13.8
2022-10-03T19:46:56.063Z,13.7
2022-10-03T19:52:02.173Z,13.7
2022-10-03T19:57:08.300Z,13.8
2022-10-03T20:02:14.348Z,13.7
2022-10-03T20:07:20.484Z,13.7
2022-10-03T20:12:26.540Z,13.6
2022-10-03T20:17:31.673Z,13.6
2022-10-03T20:22:37.772Z,13.5
2022-10-03T20:27:43.936Z,13.5
2022-10-03T20:32:49.949Z,13.4
2022-10-03T20:37:56.075Z,13.4
2022-10-03T20:43:02.126Z,13.3
2022-10-03T20:48:08.314Z,13.3
2022-10-03T20:53:14.317Z,13.3
2022-10-03T20:58:20.418Z,13.3
2022-10-03T21:03:26.551Z,13.3
2022-10-03T21:08:32.606Z,13.2
2022-10-03T21:13:38.763Z,13.3
2022-10-03T21:18:44.913Z,13.2
2022-10-03T21:23:49.915Z,13.3
2022-10-03T21:28:56.000Z,13.2
2022-10-03T21:34:02.173Z,13.2
2022-10-03T21:39:08.201Z,13.2
2022-10-03T21:44:14.274Z,13.2
2022-10-03T21:49:20.386Z,13.2
2022-10-03T21:54:26.478Z,13.2
2022-10-03T21:59:32.667Z,13.2
2022-10-03T22:04:38.651Z,13.2
2022-10-03T22:09:44.752Z,13.2
2022-10-03T22:14:50.883Z,13.2
2022-10-03T22:19:56.936Z,13.2
2022-10-03T22:25:03.080Z,13.1
2022-10-03T22:30:08.144Z,13.1
2022-10-03T22:35:14.250Z,13
2022-10-03T22:40:20.341Z,12.9
2022-10-03T22:45:26.435Z,12.9
2022-10-03T22:50:32.534Z,12.8
2022-10-03T22:55:38.628Z,12.7
2022-10-03T23:00:44.737Z,12.6
2022-10-03T23:05:50.856Z,12.5
2022-10-03T23:10:56.918Z,12.5
2022-10-03T23:16:03.028Z,12.5
2022-10-03T23:21:09.132Z,12.5
2022-10-03T23:26:15.198Z,12.4
2022-10-03T23:31:21.315Z,12.4
2022-10-03T23:36:26.401Z,12.4
2022-10-03T23:41:32.520Z,12.3
2022-10-03T23:46:38.592Z,12.3
2022-10-03T23:51:44.683Z,12.3
2022-10-03T23:56:50.806Z,12.2
